• location
  • image
mod_vvisit_countermod_vvisit_countermod_vvisit_countermod_vvisit_countermod_vvisit_countermod_vvisit_countermod_vvisit_counter
mod_vvisit_counterToday61
mod_vvisit_counterYesterday311
mod_vvisit_counterThis week1268
mod_vvisit_counterLast week4842
mod_vvisit_counterThis month12836
mod_vvisit_counterLast month22275
mod_vvisit_counterAll days1021068

We have: 7 guests online
Your IP: 54.92.211.239
 , 
Today: Nov 21, 2018
Airport / Services

List of services

  

Services of Siauliai International Airport:

 

Leading (follow me)

Ground services

Aircraft loading/unloading

Aircraft parking

Aircraft security

Aircraft fuel supply

Passenger baggage service

Business class passenger service

Submission of information to passengers

Serving meals to passengers and crew

Additional services for aircraft crewmembers

Aviation Security

Dining Cafe

First medical aid

Hotel reservations

Transporting crew to/from the city

Taxi booking 

Border procedures

Customs procedures

 

Today

Wednesday, 21 November 2018

Aviation Weather Forecast

[source: ADDS]
METAR
EYSA 210020Z AUTO 02005KT 360V060 9999NDV OVC004 M03/M03 Q1030 R14L/09//95 =
TAF EYSA 202303Z 2100/2109 VRB05KT 5000 BR OVC005 TEMPO 2100/2109 3000
TAF
TAF EYSA 202303Z 2100/2109 VRB05KT 5000 BR OVC005 TEMPO 2100/2109 3000 =
SR / SS: 06:12 / 14:15 UTC (EYSA 2018-11-21)

Search

Who's Online

We have 6 guests online

tic logo en